createdAt,value
2022-10-19T00:05:21.839Z,84
2022-10-19T00:15:28.004Z,82
2022-10-19T00:25:34.704Z,82
2022-10-19T00:35:41.064Z,78
2022-10-19T00:45:47.589Z,80
2022-10-19T00:55:54.424Z,80
2022-10-19T01:06:00.607Z,80
2022-10-19T01:16:07.690Z,82
2022-10-19T01:26:13.919Z,84
2022-10-19T01:36:20.048Z,82
2022-10-19T01:46:26.454Z,84
2022-10-19T01:56:32.912Z,82
2022-10-19T02:06:39.991Z,80
2022-10-19T02:16:46.585Z,84
2022-10-19T02:26:52.440Z,82
2022-10-19T02:36:58.884Z,78
2022-10-19T02:47:05.542Z,78
2022-10-19T02:57:12.277Z,82
2022-10-19T03:07:18.745Z,82
2022-10-19T03:17:25.045Z,80
2022-10-19T03:27:31.596Z,82
2022-10-19T03:37:38.021Z,80
2022-10-19T03:47:44.653Z,86
2022-10-19T03:57:51.701Z,80
2022-10-19T04:07:58.707Z,82
2022-10-19T04:18:05.572Z,82
2022-10-19T04:28:11.821Z,82
2022-10-19T04:38:18.172Z,78
2022-10-19T04:48:25.184Z,78
2022-10-19T04:58:31.254Z,78
2022-10-19T05:08:37.053Z,80
2022-10-19T05:18:43.801Z,82
2022-10-19T05:28:50.394Z,78
2022-10-19T05:38:56.927Z,82
2022-10-19T05:49:03.378Z,78
2022-10-19T05:59:10.574Z,82
2022-10-19T06:09:17.479Z,84
2022-10-19T06:19:23.820Z,76
2022-10-19T06:29:30.177Z,86
2022-10-19T06:39:36.706Z,92
2022-10-19T06:49:43.155Z,86
2022-10-19T06:59:51.397Z,88
2022-10-19T07:09:59.863Z,90
2022-10-19T07:20:06.233Z,88
2022-10-19T07:30:12.634Z,88
2022-10-19T07:40:18.870Z,88
2022-10-19T07:50:25.213Z,86
2022-10-19T08:00:31.364Z,86
2022-10-19T08:10:37.477Z,86
2022-10-19T08:20:44.089Z,90
2022-10-19T08:30:50.766Z,88
2022-10-19T08:40:57.335Z,86
2022-10-19T08:51:03.617Z,88
2022-10-19T09:01:09.673Z,88
2022-10-19T09:11:15.907Z,90
2022-10-19T09:21:30.912Z,84
2022-10-19T09:31:38.261Z,84
2022-10-19T09:41:45.618Z,86
2022-10-19T09:51:52.458Z,88
2022-10-19T10:01:58.619Z,90
2022-10-19T10:12:05.352Z,88
2022-10-19T10:22:11.922Z,90
2022-10-19T10:32:18.048Z,86
2022-10-19T10:42:24.711Z,88
2022-10-19T10:52:31.889Z,88
2022-10-19T11:02:38.099Z,88
2022-10-19T11:12:44.264Z,86
2022-10-19T11:22:51.148Z,88
2022-10-19T11:32:57.200Z,88
2022-10-19T11:43:03.540Z,86
2022-10-19T11:53:09.459Z,88
2022-10-19T12:03:15.681Z,86
2022-10-19T12:14:42.279Z,86
2022-10-19T12:24:48.213Z,84
2022-10-19T12:34:55.108Z,88
2022-10-19T12:45:01.731Z,90
2022-10-19T12:55:08.023Z,86
2022-10-19T13:05:14.752Z,88
2022-10-19T13:15:21.721Z,88
2022-10-19T13:25:28.404Z,88
2022-10-19T13:35:34.664Z,90
2022-10-19T13:45:44.636Z,86
2022-10-19T13:55:51.839Z,88
2022-10-19T14:05:59.076Z,86
2022-10-19T14:16:06.266Z,86
2022-10-19T14:26:12.552Z,86
2022-10-19T14:36:18.831Z,88
2022-10-19T14:46:25.597Z,90
2022-10-19T14:56:32.924Z,90
2022-10-19T15:06:39.204Z,88
2022-10-19T15:16:45.865Z,88
2022-10-19T15:27:01.875Z,88
2022-10-19T15:37:06.402Z,90
2022-10-19T15:47:15.531Z,88
2022-10-19T15:57:21.865Z,90
2022-10-19T16:07:28.898Z,86
2022-10-19T16:17:36.432Z,88
2022-10-19T16:27:43.907Z,88
2022-10-19T16:37:50.904Z,88
2022-10-19T16:47:57.809Z,88
2022-10-19T16:58:04.233Z,88
2022-10-19T17:08:11.138Z,88
2022-10-19T17:28:26.934Z,88
2022-10-19T17:38:34.887Z,90
2022-10-19T17:48:41.448Z,88
2022-10-19T17:58:48.366Z,88
2022-10-19T18:08:55.083Z,88
2022-10-19T18:19:01.515Z,88
2022-10-19T18:29:07.469Z,88
2022-10-19T18:39:13.948Z,86
2022-10-19T18:49:20.602Z,90
2022-10-19T19:09:34.705Z,88
2022-10-19T19:19:40.773Z,90
2022-10-19T19:29:46.869Z,90
2022-10-19T19:39:53.625Z,90
2022-10-19T19:49:59.913Z,88
2022-10-19T20:00:06.883Z,86
2022-10-19T20:10:13.191Z,90
2022-10-19T20:20:20.561Z,88
2022-10-19T20:30:27.279Z,90
2022-10-19T20:40:34.126Z,86
2022-10-19T20:50:40.447Z,90
2022-10-19T21:00:48.101Z,84
2022-10-19T21:10:54.438Z,88
2022-10-19T21:21:00.726Z,90
2022-10-19T21:31:06.733Z,88
2022-10-19T21:41:12.949Z,86
2022-10-19T21:51:19.088Z,88
2022-10-19T22:01:25.143Z,86
2022-10-19T22:11:31.695Z,88
2022-10-19T22:31:43.860Z,88
2022-10-19T22:41:50.087Z,86
2022-10-19T22:51:56.461Z,86
2022-10-19T23:02:03.020Z,86
2022-10-19T23:12:09.230Z,86
2022-10-19T23:22:16.119Z,88
2022-10-19T23:32:22.589Z,90
2022-10-19T23:42:28.759Z,88
2022-10-19T23:52:34.921Z,90
